Time;durP1;ratioP1;P1;durP2;ratioP2;P2;SDS_P1;SDS_P2;PMS_P1;PMS_P2;Temp;Humidity;BMP_temperature;BMP_pressure;BME280_temperature;BME280_humidity;BME280_pressure;Samples;Min_cycle;Max_cycle;Signal;HPM_P1;HPM_P2
2021/11/20 00:02:28;;;;;;;16.05;4.40;;;9.00;99.90;;;;;;5056356;28;20044;-83
2021/11/20 00:04:55;;;;;;;13.13;3.92;;;9.00;99.90;;;;;;5050965;28;20080;-82
2021/11/20 00:07:21;;;;;;;6.32;4.00;;;9.00;99.90;;;;;;5072043;28;20037;-83
2021/11/20 00:09:48;;;;;;;5.55;3.97;;;9.00;99.90;;;;;;5022193;28;20521;-83
2021/11/20 00:12:19;;;;;;;9.13;3.63;;;9.00;99.90;;;;;;5059930;28;20053;-83
2021/11/20 00:14:45;;;;;;;3.72;2.25;;;9.00;99.90;;;;;;5058797;28;20052;-83
2021/11/20 00:17:11;;;;;;;4.30;3.33;;;9.10;99.90;;;;;;5055529;28;20041;-83
2021/11/20 00:19:37;;;;;;;;;;;9.10;99.90;;;;;;5059978;28;20530;-83
2021/11/20 00:22:05;;;;;;;8.20;3.00;;;9.10;99.90;;;;;;5046499;28;19959;-82
2021/11/20 00:24:44;;;;;;;5.65;3.58;;;9.10;99.90;;;;;;5056449;28;20047;-82
2021/11/20 00:27:17;;;;;;;5.20;2.63;;;9.10;99.90;;;;;;5070073;28;20374;-84
2021/11/20 00:29:59;;;;;;;6.00;3.13;;;9.10;99.90;;;;;;5062300;28;20148;-82
2021/11/20 00:32:28;;;;;;;4.07;2.75;;;9.20;99.90;;;;;;5057550;28;20485;-82
2021/11/20 00:34:58;;;;;;;10.68;4.22;;;9.20;99.90;;;;;;5058363;28;20401;-83
2021/11/20 00:37:25;;;;;;;10.80;4.30;;;9.30;99.90;;;;;;5045985;28;20048;-83
2021/11/20 00:39:51;;;;;;;;;;;9.30;99.90;;;;;;5052894;28;20049;-84
2021/11/20 00:42:18;;;;;;;7.78;3.08;;;9.30;99.90;;;;;;5062157;28;19916;-82
2021/11/20 00:44:44;;;;;;;9.02;5.28;;;9.30;99.90;;;;;;5057601;28;20049;-84
2021/11/20 00:47:10;;;;;;;9.88;4.03;;;9.40;99.90;;;;;;5059456;28;20050;-83
2021/11/20 00:49:36;;;;;;;7.03;3.13;;;9.40;99.90;;;;;;5072499;28;20084;-83
2021/11/20 00:52:02;;;;;;;;;;;9.40;99.90;;;;;;5037601;28;20546;-82
2021/11/20 00:54:28;;;;;;;4.55;3.13;;;9.50;99.90;;;;;;5054874;28;19920;-82
2021/11/20 00:56:54;;;;;;;11.93;4.90;;;9.40;99.90;;;;;;5053843;28;20443;-82
2021/11/20 00:59:20;;;;;;;4.07;3.75;;;9.40;99.90;;;;;;5054668;28;20094;-81
2021/11/20 01:01:52;;;;;;;5.70;2.97;;;9.50;99.90;;;;;;5042695;28;20040;-83
2021/11/20 01:04:20;;;;;;;4.47;3.20;;;9.50;99.90;;;;;;5055718;28;20079;-83
2021/11/20 01:06:47;;;;;;;3.90;3.08;;;9.50;99.90;;;;;;5062978;28;20044;-83
2021/11/20 01:09:15;;;;;;;6.80;4.18;;;9.50;99.90;;;;;;5033896;28;1117034;-83
2021/11/20 01:11:53;;;;;;;6.90;4.30;;;9.60;99.90;;;;;;5066948;28;20128;-83
2021/11/20 01:14:20;;;;;;;9.82;4.43;;;9.70;99.90;;;;;;5052746;28;20427;-83
2021/11/20 01:16:48;;;;;;;8.20;4.00;;;9.70;99.90;;;;;;5030702;28;20094;-82
2021/11/20 01:19:15;;;;;;;5.22;3.28;;;9.70;99.90;;;;;;5061604;28;20032;-83
2021/11/20 01:21:42;;;;;;;25.25;4.45;;;9.80;99.90;;;;;;5055162;28;20049;-83
2021/11/20 01:24:09;;;;;;;6.38;3.42;;;9.80;99.90;;;;;;5051108;28;20041;-84
2021/11/20 01:26:37;;;;;;;7.88;4.95;;;9.80;99.90;;;;;;5054462;28;20044;-82
2021/11/20 01:29:05;;;;;;;6.28;3.85;;;9.80;99.90;;;;;;5061526;28;20048;-82
2021/11/20 01:31:33;;;;;;;6.47;2.67;;;9.90;99.90;;;;;;5054541;28;20075;-82
2021/11/20 01:33:59;;;;;;;7.80;4.78;;;9.80;99.90;;;;;;5055716;28;20036;-82
2021/11/20 01:36:29;;;;;;;8.20;4.32;;;9.80;99.90;;;;;;5063873;28;20044;-84
2021/11/20 01:38:57;;;;;;;6.10;3.95;;;9.90;99.90;;;;;;5057235;28;20036;-83
2021/11/20 01:41:26;;;;;;;7.43;4.50;;;9.90;99.90;;;;;;5059655;28;20128;-82
2021/11/20 01:43:55;;;;;;;13.48;6.20;;;10.00;99.90;;;;;;5047843;28;20045;-83
2021/11/20 01:46:25;;;;;;;7.35;4.57;;;10.10;99.90;;;;;;5061195;28;20044;-85
2021/11/20 01:49:01;;;;;;;8.63;4.85;;;10.10;99.90;;;;;;5054798;28;20486;-81
2021/11/20 01:51:35;;;;;;;7.70;4.93;;;10.10;99.90;;;;;;5057150;28;20044;-83
2021/11/20 01:54:38;;;;;;;6.25;4.68;;;10.10;99.90;;;;;;5044918;28;20448;-82
2021/11/20 01:57:31;;;;;;;7.13;3.45;;;10.00;99.90;;;;;;5034713;28;20052;-82
2021/11/20 02:00:13;;;;;;;7.40;4.50;;;10.00;99.90;;;;;;5053607;28;20040;-83
2021/11/20 02:02:47;;;;;;;5.70;4.63;;;10.00;99.90;;;;;;5066697;28;20042;-84
2021/11/20 02:05:50;;;;;;;6.55;2.95;;;10.00;99.90;;;;;;5055425;28;20089;-82
2021/11/20 02:08:35;;;;;;;4.68;4.20;;;10.00;99.90;;;;;;5054908;28;20048;-83
2021/11/20 02:11:09;;;;;;;19.00;4.30;;;10.00;99.90;;;;;;5055294;28;20060;-83
2021/11/20 02:13:36;;;;;;;5.05;3.63;;;10.00;99.90;;;;;;5056402;28;20075;-84
2021/11/20 02:16:13;;;;;;;16.27;5.70;;;10.00;99.90;;;;;;5055791;28;20051;-83
2021/11/20 02:18:43;;;;;;;5.43;2.85;;;9.90;99.90;;;;;;5054612;28;20044;-82
2021/11/20 02:21:31;;;;;;;8.13;5.05;;;9.90;99.90;;;;;;5062551;28;20143;-82
2021/11/20 02:23:57;;;;;;;5.75;3.92;;;9.90;99.90;;;;;;5056391;28;20032;-82
2021/11/20 02:26:22;;;;;;;6.40;4.07;;;9.90;99.90;;;;;;5055057;28;20158;-84
2021/11/20 02:28:49;;;;;;;6.25;2.83;;;9.90;99.90;;;;;;5054188;28;20052;-83
2021/11/20 02:31:16;;;;;;;6.65;3.92;;;9.90;99.90;;;;;;5053824;28;20079;-82
2021/11/20 02:33:43;;;;;;;11.52;4.47;;;9.90;99.90;;;;;;5054694;28;20446;-83
2021/11/20 02:36:16;;;;;;;7.20;5.15;;;9.80;99.90;;;;;;5067102;28;20040;-82
2021/11/20 02:38:59;;;;;;;11.13;4.93;;;9.90;99.90;;;;;;5070656;28;20041;-83
2021/11/20 02:41:27;;;;;;;5.70;4.53;;;9.90;99.90;;;;;;5029239;28;20036;-83
2021/11/20 02:43:55;;;;;;;6.38;4.03;;;10.00;99.90;;;;;;5064088;28;20133;-84
2021/11/20 02:46:24;;;;;;;14.30;3.90;;;10.00;99.90;;;;;;5038053;28;20048;-83
2021/11/20 02:48:50;;;;;;;7.88;4.28;;;9.90;99.90;;;;;;5072000;28;20036;-82
2021/11/20 02:51:24;;;;;;;;;;;9.90;99.90;;;;;;5020167;28;20048;-82
2021/11/20 02:53:57;;;;;;;5.80;4.35;;;10.00;99.90;;;;;;5039047;28;19921;-81
2021/11/20 02:56:27;;;;;;;7.22;4.15;;;10.00;99.90;;;;;;5054097;28;20032;-82
2021/11/20 02:58:52;;;;;;;5.00;3.22;;;10.00;99.90;;;;;;5054938;28;20040;-81
2021/11/20 03:01:24;;;;;;;5.25;4.18;;;10.00;99.90;;;;;;5071362;28;20041;-83
2021/11/20 03:03:51;;;;;;;4.22;3.42;;;9.90;99.90;;;;;;5062516;28;20127;-82
2021/11/20 03:06:17;;;;;;;8.27;4.45;;;9.90;99.90;;;;;;5056521;28;20041;-83
2021/11/20 03:08:43;;;;;;;4.15;3.10;;;9.90;99.90;;;;;;5045243;28;20067;-81
2021/11/20 03:11:13;;;;;;;7.80;3.55;;;9.90;99.90;;;;;;5071749;28;20087;-82
2021/11/20 03:13:43;;;;;;;4.95;4.10;;;9.80;99.90;;;;;;5053647;28;20079;-82
2021/11/20 03:16:09;;;;;;;17.15;4.82;;;9.80;99.90;;;;;;5071887;28;20044;-83
2021/11/20 03:18:35;;;;;;;6.18;2.35;;;9.80;99.90;;;;;;5046536;28;20059;-83
2021/11/20 03:21:02;;;;;;;4.38;2.85;;;9.90;99.90;;;;;;5053690;28;20100;-82
2021/11/20 03:23:41;;;;;;;4.57;3.22;;;9.80;99.90;;;;;;5037132;28;20045;-83
2021/11/20 03:26:07;;;;;;;6.68;4.10;;;9.70;99.90;;;;;;5048435;28;20136;-83
2021/11/20 03:28:33;;;;;;;5.72;3.78;;;9.70;99.90;;;;;;5032670;28;20048;-82
2021/11/20 03:30:59;;;;;;;4.18;3.55;;;9.70;99.90;;;;;;5069929;28;20049;-83
2021/11/20 03:33:25;;;;;;;6.38;4.10;;;9.80;99.90;;;;;;5053792;28;20040;-82
2021/11/20 03:35:51;;;;;;;;;;;9.80;99.90;;;;;;5067291;28;20110;-82
2021/11/20 03:38:17;;;;;;;6.95;3.97;;;9.80;99.90;;;;;;5058416;28;19916;-81
2021/11/20 03:40:43;;;;;;;11.10;4.22;;;9.80;99.90;;;;;;5072377;28;20056;-82
2021/11/20 03:43:09;;;;;;;7.68;4.32;;;9.90;99.90;;;;;;5049811;28;20491;-81
2021/11/20 03:45:36;;;;;;;4.63;2.85;;;9.90;99.90;;;;;;5074448;28;20033;-81
2021/11/20 03:48:04;;;;;;;8.25;4.07;;;10.00;99.90;;;;;;5043537;28;20044;-82
2021/11/20 03:50:30;;;;;;;6.30;3.70;;;10.00;99.90;;;;;;5052108;28;20501;-83
2021/11/20 03:52:57;;;;;;;7.05;3.95;;;10.10;99.90;;;;;;5052333;28;20040;-82
2021/11/20 03:55:27;;;;;;;8.48;4.10;;;10.10;99.90;;;;;;5057700;28;20049;-83
2021/11/20 03:57:53;;;;;;;6.57;4.35;;;10.30;99.90;;;;;;5057437;28;20445;-81
2021/11/20 04:00:22;;;;;;;10.15;4.72;;;10.20;99.90;;;;;;5060252;28;20043;-81
2021/11/20 04:02:49;;;;;;;6.88;5.22;;;10.20;99.90;;;;;;5056595;28;20507;-82
2021/11/20 04:05:16;;;;;;;;;;;10.20;99.90;;;;;;5040592;28;20072;-82
2021/11/20 04:07:41;;;;;;;;;;;10.30;99.90;;;;;;5043556;28;19916;-83
2021/11/20 04:10:10;;;;;;;9.40;5.20;;;10.30;99.90;;;;;;5055707;28;19920;-82
2021/11/20 04:12:37;;;;;;;5.65;3.88;;;10.40;99.90;;;;;;5057129;28;20414;-82
2021/11/20 04:15:05;;;;;;;3.03;2.72;;;10.40;99.90;;;;;;5051425;28;20043;-82
2021/11/20 04:17:31;;;;;;;7.20;4.07;;;10.40;99.90;;;;;;5055121;28;20119;-82
2021/11/20 04:19:56;;;;;;;12.50;6.32;;;10.40;99.90;;;;;;5048180;28;20127;-82
2021/11/20 04:22:22;;;;;;;6.65;4.63;;;10.40;99.90;;;;;;5066916;28;20401;-83
2021/11/20 04:24:51;;;;;;;16.65;5.05;;;10.40;99.90;;;;;;5073125;28;20150;-82
2021/11/20 04:27:17;;;;;;;15.55;4.68;;;10.40;99.90;;;;;;5059454;28;20044;-82
2021/11/20 04:29:42;;;;;;;9.25;4.13;;;10.50;99.90;;;;;;5068140;28;20036;-82
2021/11/20 04:32:10;;;;;;;9.85;4.80;;;10.50;99.90;;;;;;5056331;28;20051;-82
2021/11/20 04:34:36;;;;;;;8.82;5.28;;;10.50;99.90;;;;;;5058730;28;20040;-82
2021/11/20 04:37:01;;;;;;;7.43;4.93;;;10.50;99.90;;;;;;5040646;28;20053;-83
2021/11/20 04:39:27;;;;;;;5.50;3.55;;;10.50;99.90;;;;;;5057667;28;20105;-81
2021/11/20 04:41:53;;;;;;;9.18;5.70;;;10.50;99.90;;;;;;5054250;28;20585;-82
2021/11/20 04:44:19;;;;;;;9.35;5.70;;;10.50;99.90;;;;;;5057239;28;20041;-83
2021/11/20 04:46:45;;;;;;;;;;;10.60;99.90;;;;;;5068587;28;20129;-83
2021/11/20 04:49:10;;;;;;;6.97;4.45;;;10.50;99.90;;;;;;5072689;28;19920;-82
2021/11/20 04:51:36;;;;;;;7.22;5.43;;;10.50;99.90;;;;;;5048156;28;20040;-82
2021/11/20 04:54:02;;;;;;;4.68;3.45;;;10.50;99.90;;;;;;5049075;28;20071;-82
2021/11/20 04:56:28;;;;;;;;;;;10.50;99.90;;;;;;5072965;28;20044;-84
2021/11/20 04:58:54;;;;;;;7.30;4.88;;;10.50;99.90;;;;;;5051458;28;19916;-83
2021/11/20 05:01:21;;;;;;;;;;;10.50;99.90;;;;;;5056103;28;20109;-81
2021/11/20 05:03:49;;;;;;;5.47;3.35;;;10.50;99.90;;;;;;5064694;28;19916;-82
2021/11/20 05:06:17;;;;;;;9.20;5.07;;;10.50;99.90;;;;;;5057478;28;20055;-82
2021/11/20 05:08:43;;;;;;;7.72;4.63;;;10.60;99.90;;;;;;5056465;28;20060;-83
2021/11/20 05:11:10;;;;;;;8.15;4.63;;;10.50;99.90;;;;;;5068828;28;20051;-83
2021/11/20 05:13:36;;;;;;;7.45;4.78;;;10.50;99.90;;;;;;5073124;28;20051;-82
2021/11/20 05:16:02;;;;;;;5.80;4.13;;;10.50;99.90;;;;;;5048814;28;20044;-83
2021/11/20 05:18:29;;;;;;;8.63;4.95;;;10.50;99.90;;;;;;5039366;28;20037;-82
2021/11/20 05:20:59;;;;;;;8.20;4.93;;;10.50;99.90;;;;;;5039361;28;20068;-83
2021/11/20 05:23:26;;;;;;;3.03;2.75;;;10.50;99.90;;;;;;5047097;28;20516;-82
2021/11/20 05:25:53;;;;;;;6.47;4.25;;;10.50;99.90;;;;;;5059283;28;20178;-83
2021/11/20 05:28:19;;;;;;;5.47;4.28;;;10.50;99.90;;;;;;5055601;28;20051;-83
2021/11/20 05:30:48;;;;;;;7.05;4.32;;;10.50;99.90;;;;;;5038814;28;20041;-83
2021/11/20 05:33:23;;;;;;;6.90;4.07;;;10.50;99.90;;;;;;5072402;28;20054;-83
2021/11/20 05:35:49;;;;;;;12.90;5.07;;;10.50;99.90;;;;;;5035473;28;20538;-84
2021/11/20 05:38:15;;;;;;;5.68;4.13;;;10.50;99.90;;;;;;5052064;28;20036;-83
2021/11/20 05:40:41;;;;;;;6.75;3.75;;;10.50;99.90;;;;;;5055323;28;20461;-83
2021/11/20 05:43:11;;;;;;;4.68;3.83;;;10.50;99.90;;;;;;5056590;28;20045;-83
2021/11/20 05:45:40;;;;;;;10.60;4.40;;;10.50;99.90;;;;;;5053572;28;20040;-83
2021/11/20 05:48:06;;;;;;;6.47;3.65;;;10.50;99.90;;;;;;5066376;28;20541;-83
2021/11/20 05:50:33;;;;;;;8.32;4.13;;;10.50;99.90;;;;;;5052435;28;20101;-82
2021/11/20 05:52:59;;;;;;;5.45;3.50;;;10.40;99.90;;;;;;5055709;28;20048;-83
2021/11/20 05:55:29;;;;;;;5.40;3.85;;;10.40;99.90;;;;;;5048563;28;20474;-83
2021/11/20 05:57:55;;;;;;;5.93;3.47;;;10.40;99.90;;;;;;5040970;28;20045;-83
2021/11/20 06:00:24;;;;;;;;;;;10.40;99.90;;;;;;5038002;28;20041;-84
2021/11/20 06:02:52;;;;;;;7.32;4.70;;;10.30;99.90;;;;;;5054325;28;20365;-82
2021/11/20 06:05:18;;;;;;;5.65;4.45;;;10.30;99.90;;;;;;5046894;28;20044;-83
2021/11/20 06:07:43;;;;;;;11.30;5.60;;;10.30;99.90;;;;;;5055540;28;20055;-82
2021/11/20 06:10:09;;;;;;;9.38;4.85;;;10.30;99.90;;;;;;5074752;28;20055;-82
2021/11/20 06:12:35;;;;;;;5.13;3.22;;;10.30;99.90;;;;;;5065508;28;20401;-83
2021/11/20 06:15:01;;;;;;;6.03;2.83;;;10.30;99.90;;;;;;5038092;28;20040;-82
2021/11/20 06:17:27;;;;;;;9.43;5.30;;;10.20;99.90;;;;;;5053109;28;20124;-81
2021/11/20 06:19:52;;;;;;;5.38;4.20;;;10.20;99.90;;;;;;5050795;28;20045;-82
2021/11/20 06:22:20;;;;;;;8.05;4.32;;;10.20;99.90;;;;;;5053099;28;20102;-82
2021/11/20 06:24:46;;;;;;;15.57;4.97;;;10.20;99.90;;;;;;5059097;28;20044;-82
2021/11/20 06:27:12;;;;;;;10.77;5.45;;;10.30;99.90;;;;;;5072903;28;20371;-83
2021/11/20 06:29:38;;;;;;;10.07;6.68;;;10.30;99.90;;;;;;5072529;28;20052;-82
2021/11/20 06:32:04;;;;;;;13.75;5.38;;;10.30;99.90;;;;;;5054948;28;20123;-82
2021/11/20 06:34:30;;;;;;;10.80;4.90;;;10.30;99.90;;;;;;5064464;28;20048;-82
2021/11/20 06:36:56;;;;;;;9.55;5.18;;;10.30;99.90;;;;;;5047052;28;20467;-83
2021/11/20 06:39:22;;;;;;;6.00;4.78;;;10.40;99.90;;;;;;5059726;28;20043;-83
2021/11/20 06:41:48;;;;;;;9.95;3.95;;;10.30;99.90;;;;;;5027718;28;20068;-82
2021/11/20 06:44:14;;;;;;;7.53;4.43;;;10.40;99.90;;;;;;5042159;28;20052;-83
2021/11/20 06:46:40;;;;;;;4.90;3.15;;;10.40;99.90;;;;;;5025964;28;20052;-83
2021/11/20 06:49:06;;;;;;;6.05;3.97;;;10.40;99.90;;;;;;5065507;28;20109;-83
2021/11/20 06:51:31;;;;;;;10.20;4.43;;;10.30;99.90;;;;;;5041419;28;20474;-84
2021/11/20 06:53:57;;;;;;;6.22;3.28;;;10.40;99.90;;;;;;5060910;28;20051;-82
2021/11/20 06:56:27;;;;;;;10.95;5.65;;;10.40;99.90;;;;;;5058950;28;20045;-82
2021/11/20 06:59:08;;;;;;;4.68;3.72;;;10.40;99.90;;;;;;5048903;28;20051;-83
2021/11/20 07:01:34;;;;;;;11.73;5.03;;;10.40;99.90;;;;;;5061957;28;20064;-83
2021/11/20 07:04:04;;;;;;;7.03;4.47;;;10.40;99.90;;;;;;5060903;28;20052;-83
2021/11/20 07:06:44;;;;;;;8.48;4.18;;;10.40;99.90;;;;;;5042394;28;20032;-83
2021/11/20 07:09:11;;;;;;;7.72;4.20;;;10.50;99.90;;;;;;5055661;28;20053;-82
2021/11/20 07:11:37;;;;;;;4.95;3.50;;;10.40;99.90;;;;;;5047287;28;20043;-82
2021/11/20 07:14:04;;;;;;;6.35;4.93;;;10.40;99.90;;;;;;5062589;28;20275;-83
2021/11/20 07:16:30;;;;;;;13.38;5.35;;;10.40;99.90;;;;;;5064342;28;20036;-83
2021/11/20 07:18:56;;;;;;;;;;;10.40;99.90;;;;;;5065491;28;20085;-82
2021/11/20 07:21:24;;;;;;;9.23;4.60;;;10.40;99.90;;;;;;5059378;28;19923;-83
2021/11/20 07:23:52;;;;;;;5.68;4.45;;;10.40;99.90;;;;;;5072214;28;20044;-83
2021/11/20 07:26:17;;;;;;;6.07;4.45;;;10.40;99.90;;;;;;5058987;28;20036;-82
2021/11/20 07:28:43;;;;;;;4.55;3.95;;;10.40;99.90;;;;;;5059706;28;20102;-83
2021/11/20 07:31:09;;;;;;;9.23;6.20;;;10.40;99.90;;;;;;5059197;28;20079;-83
2021/11/20 07:33:34;;;;;;;8.90;3.88;;;10.40;99.90;;;;;;5072088;28;20044;-84
2021/11/20 07:36:03;;;;;;;7.00;3.65;;;10.40;99.90;;;;;;5065313;28;20041;-83
2021/11/20 07:38:36;;;;;;;10.13;3.92;;;10.40;99.90;;;;;;5057772;28;20064;-83
2021/11/20 07:41:03;;;;;;;6.55;4.78;;;10.40;99.90;;;;;;5065190;28;20089;-83
2021/11/20 07:43:28;;;;;;;4.40;3.97;;;10.50;99.90;;;;;;5074854;28;20045;-84
2021/11/20 07:45:54;;;;;;;6.43;3.72;;;10.40;99.90;;;;;;5066195;28;20063;-84
2021/11/20 07:48:23;;;;;;;5.72;3.78;;;10.40;99.90;;;;;;5058471;28;20056;-84
2021/11/20 07:50:50;;;;;;;7.60;5.28;;;10.40;99.90;;;;;;5057780;28;20128;-81
2021/11/20 07:53:17;;;;;;;5.90;3.75;;;10.30;99.90;;;;;;5047238;28;20109;-81
2021/11/20 07:55:45;;;;;;;7.78;3.63;;;10.30;99.90;;;;;;5057644;28;20105;-84
2021/11/20 07:58:11;;;;;;;4.65;2.75;;;10.40;99.90;;;;;;5045857;28;20056;-82
2021/11/20 08:00:38;;;;;;;9.88;4.72;;;10.40;99.90;;;;;;5057175;28;20037;-81
2021/11/20 08:03:06;;;;;;;6.00;2.92;;;10.30;99.90;;;;;;5055667;28;20052;-82
2021/11/20 08:05:31;;;;;;;6.57;3.38;;;10.40;99.90;;;;;;5060964;28;20044;-82
2021/11/20 08:07:57;;;;;;;7.30;4.55;;;10.40;99.90;;;;;;5074912;28;20106;-82
2021/11/20 08:10:26;;;;;;;4.45;3.55;;;10.40;99.90;;;;;;5056259;28;20135;-82
2021/11/20 08:12:52;;;;;;;4.38;3.65;;;10.40;99.90;;;;;;5056118;28;20486;-83
2021/11/20 08:15:19;;;;;;;6.15;4.22;;;10.40;99.90;;;;;;5046483;28;20552;-84
2021/11/20 08:17:45;;;;;;;8.07;3.75;;;10.40;99.90;;;;;;5055974;28;20045;-83
2021/11/20 08:20:15;;;;;;;4.50;3.03;;;10.40;99.90;;;;;;5058476;28;20043;-83
2021/11/20 08:22:40;;;;;;;3.97;2.97;;;10.40;99.90;;;;;;5061618;28;20093;-82
2021/11/20 08:25:10;;;;;;;7.95;4.13;;;10.40;99.90;;;;;;5046222;28;20119;-86
2021/11/20 08:27:36;;;;;;;6.47;3.67;;;10.40;99.90;;;;;;5042667;28;20052;-81
2021/11/20 08:30:05;;;;;;;9.88;4.85;;;10.40;99.90;;;;;;5065144;28;20037;-81
2021/11/20 08:32:31;;;;;;;11.40;6.07;;;10.40;99.90;;;;;;5043879;28;20101;-83
2021/11/20 08:34:58;;;;;;;5.63;3.88;;;10.40;99.90;;;;;;5060276;28;20052;-84
2021/11/20 08:37:25;;;;;;;8.73;4.70;;;10.40;99.90;;;;;;5056415;28;20047;-80
2021/11/20 08:39:53;;;;;;;6.18;5.13;;;10.50;99.90;;;;;;5057047;28;20044;-82
2021/11/20 08:42:19;;;;;;;10.45;5.95;;;10.50;99.90;;;;;;5069405;28;20041;-82
2021/11/20 08:44:45;;;;;;;11.55;5.22;;;10.50;99.90;;;;;;5063709;28;20041;-80
2021/11/20 08:47:10;;;;;;;8.35;5.60;;;10.50;99.90;;;;;;5026604;28;20421;-80
2021/11/20 08:49:36;;;;;;;8.55;4.50;;;10.50;99.90;;;;;;5061808;28;20087;-79
2021/11/20 08:52:03;;;;;;;10.38;5.15;;;10.60;99.90;;;;;;5060699;28;20079;-84
2021/11/20 08:54:29;;;;;;;8.02;5.40;;;10.60;99.90;;;;;;5038950;28;20569;-82
2021/11/20 08:56:57;;;;;;;9.23;5.65;;;10.60;99.90;;;;;;5045404;28;20497;-83
2021/11/20 08:59:25;;;;;;;8.63;4.28;;;10.60;99.90;;;;;;5051371;28;20036;-80
2021/11/20 09:02:02;;;;;;;7.85;5.60;;;10.60;99.90;;;;;;5058155;28;20424;-81
2021/11/20 09:04:39;;;;;;;9.45;5.95;;;10.60;99.90;;;;;;5054395;28;20075;-82
2021/11/20 09:07:17;;;;;;;7.68;4.75;;;10.60;99.90;;;;;;5057016;28;20070;-84
2021/11/20 09:09:55;;;;;;;8.60;3.97;;;10.60;99.90;;;;;;5066631;28;20458;-82
2021/11/20 09:12:46;;;;;;;7.47;4.88;;;10.60;99.90;;;;;;5062284;28;20535;-83
2021/11/20 09:15:32;;;;;;;5.90;4.30;;;10.60;99.90;;;;;;5057373;28;20135;-79
2021/11/20 09:17:58;;;;;;;5.70;4.13;;;10.60;99.90;;;;;;5042469;28;20129;-83
2021/11/20 09:20:25;;;;;;;6.20;4.60;;;10.60;99.90;;;;;;5057881;28;20554;-83
2021/11/20 09:22:51;;;;;;;12.95;6.45;;;10.60;99.90;;;;;;5052863;28;20029;-85
2021/11/20 09:25:18;;;;;;;11.15;6.20;;;10.60;99.90;;;;;;5072151;28;20557;-83
2021/11/20 09:27:45;;;;;;;9.80;6.55;;;10.60;99.90;;;;;;5042362;28;20052;-84
2021/11/20 09:30:24;;;;;;;10.23;6.38;;;10.60;99.90;;;;;;5045847;28;20055;-82
2021/11/20 09:32:50;;;;;;;11.13;6.97;;;10.70;99.90;;;;;;5055107;28;20101;-84
2021/11/20 09:35:17;;;;;;;7.85;5.10;;;10.60;99.90;;;;;;5054337;28;20131;-82
2021/11/20 09:37:43;;;;;;;12.30;6.15;;;10.70;99.90;;;;;;5042869;28;20138;-83
2021/11/20 09:40:09;;;;;;;9.32;4.22;;;10.70;99.90;;;;;;5052943;28;20044;-81
2021/11/20 09:42:48;;;;;;;14.77;6.90;;;10.70;99.90;;;;;;5058789;28;20080;-83
2021/11/20 09:45:16;;;;;;;12.68;6.75;;;10.60;99.90;;;;;;5059577;28;20044;-79
2021/11/20 09:47:51;;;;;;;11.75;4.68;;;10.60;99.90;;;;;;5063013;28;20036;-82
2021/11/20 09:50:23;;;;;;;9.90;6.82;;;10.60;99.90;;;;;;5054036;28;20045;-81
2021/11/20 09:52:50;;;;;;;10.90;7.05;;;10.60;99.90;;;;;;5059301;28;20109;-82
2021/11/20 09:55:29;;;;;;;9.07;6.75;;;10.60;99.90;;;;;;5038169;28;20079;-82
2021/11/20 09:58:15;;;;;;;8.95;5.78;;;10.70;99.90;;;;;;5058130;28;20110;-82
2021/11/20 10:01:04;;;;;;;11.05;5.95;;;10.70;99.90;;;;;;5054480;28;20071;-82
2021/11/20 10:04:03;;;;;;;14.93;6.97;;;10.60;99.90;;;;;;5051737;28;20037;-83
2021/11/20 10:06:37;;;;;;;15.02;5.68;;;10.60;99.90;;;;;;5037504;28;20125;-82
2021/11/20 10:09:20;;;;;;;8.18;5.18;;;10.60;99.90;;;;;;5058770;28;20447;-85
2021/11/20 10:12:04;;;;;;;8.50;6.15;;;10.60;99.90;;;;;;5056287;28;20044;-85
2021/11/20 10:14:40;;;;;;;18.05;6.82;;;10.60;99.90;;;;;;5055809;28;20136;-82
2021/11/20 10:17:37;;;;;;;13.55;7.13;;;10.70;99.90;;;;;;5061381;28;20049;-82
2021/11/20 10:20:22;;;;;;;9.52;7.03;;;10.70;99.90;;;;;;5068319;28;20075;-84
2021/11/20 10:23:03;;;;;;;7.38;5.35;;;10.70;99.90;;;;;;5053663;28;20067;-81
2021/11/20 10:25:52;;;;;;;9.60;6.30;;;10.70;99.90;;;;;;5063107;28;20099;-80
2021/11/20 10:28:54;;;;;;;10.77;5.60;;;10.70;99.90;;;;;;5025316;28;20051;-84
2021/11/20 10:31:45;;;;;;;9.43;5.53;;;10.70;99.90;;;;;;5058406;28;20105;-84
2021/11/20 10:34:19;;;;;;;12.02;6.35;;;10.60;99.90;;;;;;5056322;28;20136;-85
2021/11/20 10:36:58;;;;;;;7.80;5.15;;;10.60;99.90;;;;;;5065269;28;20035;-85
2021/11/20 10:39:29;;;;;;;13.90;8.68;;;10.60;99.90;;;;;;5052011;28;20055;-83
2021/11/20 10:42:02;;;;;;;9.02;5.53;;;10.60;99.90;;;;;;5047856;28;20378;-85
2021/11/20 10:44:37;;;;;;;8.10;6.90;;;10.60;99.90;;;;;;5045709;28;20037;-84
2021/11/20 10:47:12;;;;;;;12.57;5.95;;;10.60;99.90;;;;;;5049086;28;20054;-83
2021/11/20 10:49:59;;;;;;;9.75;5.43;;;10.60;99.90;;;;;;5040986;28;20047;-86
2021/11/20 10:52:31;;;;;;;13.80;6.80;;;10.60;99.90;;;;;;5066744;28;20047;-83
2021/11/20 10:55:03;;;;;;;11.60;7.53;;;10.60;99.90;;;;;;5057780;28;20642;-82
2021/11/20 10:58:02;;;;;;;8.43;6.70;;;10.70;99.90;;;;;;5058344;28;20078;-86
2021/11/20 11:00:31;;;;;;;11.45;6.70;;;10.70;99.90;;;;;;5053055;28;20037;-83
2021/11/20 11:03:15;;;;;;;10.15;6.35;;;10.60;99.90;;;;;;5057413;28;20044;-84
2021/11/20 11:06:11;;;;;;;12.73;8.23;;;10.70;99.90;;;;;;5055654;28;20040;-84
2021/11/20 11:08:54;;;;;;;10.20;6.50;;;10.70;99.90;;;;;;5070179;28;20084;-83
2021/11/20 11:11:34;;;;;;;8.85;6.03;;;10.70;99.90;;;;;;5059099;28;20048;-84
2021/11/20 11:14:03;;;;;;;7.32;5.57;;;10.70;99.90;;;;;;5060788;28;20040;-81
2021/11/20 11:16:48;;;;;;;10.82;5.43;;;10.70;99.90;;;;;;5044916;28;20082;-85
2021/11/20 11:19:42;;;;;;;11.27;7.40;;;10.70;99.90;;;;;;5059680;28;20119;-82
2021/11/20 11:22:07;;;;;;;16.23;7.55;;;10.80;99.90;;;;;;5057182;28;20635;-81
2021/11/20 11:25:10;;;;;;;11.48;6.78;;;10.80;99.90;;;;;;5067163;28;20135;-81
2021/11/20 11:28:04;;;;;;;13.07;5.97;;;10.70;99.90;;;;;;5068801;28;20072;-82
2021/11/20 11:30:58;;;;;;;12.05;6.35;;;10.70;99.90;;;;;;5069011;28;20044;-82
2021/11/20 11:33:23;;;;;;;11.32;6.78;;;10.70;99.90;;;;;;5063303;28;20040;-80
2021/11/20 11:36:14;;;;;;;21.20;9.10;;;10.60;99.90;;;;;;5052511;28;20477;-83
2021/11/20 11:38:58;;;;;;;8.63;6.70;;;10.60;99.90;;;;;;5062414;28;20468;-82
2021/11/20 11:41:45;;;;;;;13.18;7.95;;;10.50;99.90;;;;;;5073890;28;20044;-81
2021/11/20 11:44:24;;;;;;;;;;;10.50;99.90;;;;;;5051817;28;20044;-83
2021/11/20 11:46:54;;;;;;;14.73;8.32;;;10.50;99.90;;;;;;5063436;28;19916;-80
2021/11/20 11:49:40;;;;;;;13.40;6.65;;;10.50;99.90;;;;;;5056821;28;20052;-82
2021/11/20 11:52:44;;;;;;;13.40;7.43;;;10.40;99.90;;;;;;5060557;28;20446;-79
2021/11/20 11:55:39;;;;;;;12.23;7.07;;;10.40;99.90;;;;;;5054001;28;20124;-82
2021/11/20 11:58:30;;;;;;;10.55;5.88;;;10.40;99.90;;;;;;5059559;28;20086;-82
2021/11/20 12:01:10;;;;;;;16.65;8.50;;;10.30;99.90;;;;;;5037071;28;20075;-83
2021/11/20 12:03:41;;;;;;;12.88;8.15;;;10.30;99.90;;;;;;5050062;28;20119;-83
2021/11/20 12:06:17;;;;;;;11.07;7.68;;;10.40;99.90;;;;;;5064711;28;20507;-80
2021/11/20 12:08:54;;;;;;;14.52;8.65;;;10.30;99.90;;;;;;5057223;28;20092;-82
2021/11/20 12:11:29;;;;;;;14.55;10.07;;;10.30;99.90;;;;;;5060595;28;20079;-84
2021/11/20 12:13:54;;;;;;;8.95;5.47;;;10.20;99.90;;;;;;5038332;28;20040;-81
2021/11/20 12:16:23;;;;;;;23.52;9.95;;;10.20;99.90;;;;;;5053593;28;20041;-81
2021/11/20 12:18:54;;;;;;;11.75;6.45;;;10.20;99.90;;;;;;5060094;28;20051;-82
2021/11/20 12:21:32;;;;;;;12.32;7.05;;;10.30;99.90;;;;;;5056425;28;20523;-81
2021/11/20 12:24:24;;;;;;;19.42;10.63;;;10.20;99.90;;;;;;5055960;28;20432;-86
2021/11/20 12:26:55;;;;;;;12.88;8.05;;;10.20;99.90;;;;;;5056549;28;20037;-85
2021/11/20 12:29:26;;;;;;;12.02;8.32;;;10.20;99.90;;;;;;5062233;28;20083;-83
2021/11/20 12:32:20;;;;;;;14.70;9.32;;;10.20;99.90;;;;;;5054766;28;20090;-83
2021/11/20 12:34:45;;;;;;;10.88;6.57;;;10.20;99.90;;;;;;5062451;28;20040;-83
2021/11/20 12:37:27;;;;;;;10.38;5.63;;;10.20;99.90;;;;;;5065654;28;20033;-83
2021/11/20 12:40:11;;;;;;;16.83;8.00;;;10.20;99.90;;;;;;5061787;28;20493;-84
2021/11/20 12:42:55;;;;;;;18.63;8.25;;;10.30;99.90;;;;;;5068532;28;20045;-83
2021/11/20 12:45:37;;;;;;;18.85;8.48;;;10.30;99.90;;;;;;5054295;28;20075;-83
2021/11/20 12:48:16;;;;;;;14.23;7.45;;;10.30;99.90;;;;;;5074998;28;20048;-84
2021/11/20 12:51:05;;;;;;;12.00;5.50;;;10.30;99.90;;;;;;5063404;28;20365;-83
2021/11/20 12:53:34;;;;;;;15.23;8.98;;;10.30;99.90;;;;;;5041279;28;20051;-84
2021/11/20 12:56:24;;;;;;;11.10;7.10;;;10.30;99.90;;;;;;5060245;28;20526;-83
2021/11/20 12:59:13;;;;;;;11.80;8.18;;;10.40;99.90;;;;;;5045562;28;20500;-83
2021/11/20 13:01:47;;;;;;;8.85;5.72;;;10.30;99.90;;;;;;5048538;28;20036;-84
2021/11/20 13:04:24;;;;;;;10.98;7.68;;;10.40;99.90;;;;;;5055166;28;20045;-84
2021/11/20 13:06:55;;;;;;;17.40;8.45;;;10.30;99.90;;;;;;5066324;28;20041;-82
2021/11/20 13:09:33;;;;;;;12.15;7.68;;;10.40;99.90;;;;;;5061645;28;20142;-84
2021/11/20 13:12:15;;;;;;;18.33;7.63;;;10.30;99.90;;;;;;5039998;28;20055;-83